createdAt,value
2023-05-15T00:01:38.874Z,41.53
2023-05-15T00:04:05.619Z,38.00
2023-05-15T00:06:32.239Z,36.93
2023-05-15T00:08:58.735Z,45.03
2023-05-15T00:11:27.889Z,38.30
2023-05-15T00:13:54.712Z,39.47
2023-05-15T00:16:21.263Z,37.67
2023-05-15T00:18:47.818Z,44.57
2023-05-15T00:21:14.328Z,45.17
2023-05-15T00:23:40.784Z,45.03
2023-05-15T00:26:07.263Z,43.37
2023-05-15T00:28:33.782Z,43.90
2023-05-15T00:31:00.330Z,43.53
2023-05-15T00:33:26.828Z,42.70
2023-05-15T00:35:53.314Z,40.33
2023-05-15T00:38:19.774Z,37.73
2023-05-15T00:40:46.602Z,39.67
2023-05-15T00:43:13.297Z,42.40
2023-05-15T00:45:41.419Z,43.70
2023-05-15T00:48:09.879Z,40.37
2023-05-15T00:50:36.670Z,36.07
2023-05-15T00:53:03.552Z,42.93
2023-05-15T00:55:31.394Z,34.43
2023-05-15T00:57:58.111Z,36.50
2023-05-15T01:00:25.148Z,42.03
2023-05-15T01:02:52.406Z,41.60
2023-05-15T01:05:19.112Z,38.07
2023-05-15T01:07:52.831Z,38.00
2023-05-15T01:10:19.743Z,35.47
2023-05-15T01:12:47.486Z,38.10
2023-05-15T01:15:14.025Z,39.27
2023-05-15T01:17:40.825Z,40.03
2023-05-15T01:20:10.387Z,36.17
2023-05-15T01:22:53.188Z,40.37
2023-05-15T01:25:22.896Z,37.07
2023-05-15T01:27:51.748Z,37.07
2023-05-15T01:30:22.726Z,42.73
2023-05-15T01:33:08.755Z,43.97
2023-05-15T01:35:39.927Z,39.40
2023-05-15T01:38:09.511Z,40.33
2023-05-15T01:40:36.017Z,36.27
2023-05-15T01:43:08.465Z,40.20
2023-05-15T01:45:36.025Z,39.73
2023-05-15T01:48:07.735Z,37.63
2023-05-15T01:50:36.012Z,36.57
2023-05-15T01:53:03.229Z,35.00
2023-05-15T01:55:30.817Z,37.83
2023-05-15T01:58:00.932Z,35.97
2023-05-15T02:00:27.477Z,35.93
2023-05-15T02:02:54.529Z,37.80
2023-05-15T02:05:22.137Z,39.47
2023-05-15T02:07:49.305Z,37.03
2023-05-15T02:10:17.731Z,36.87
2023-05-15T02:12:44.373Z,39.67
2023-05-15T02:15:11.823Z,36.57
2023-05-15T02:17:38.562Z,33.93
2023-05-15T02:20:08.589Z,33.50
2023-05-15T02:22:35.064Z,40.77
2023-05-15T02:25:01.917Z,37.77
2023-05-15T02:27:33.860Z,38.33
2023-05-15T02:30:06.616Z,40.17
2023-05-15T02:32:58.448Z,35.63
2023-05-15T02:35:31.087Z,32.83
2023-05-15T02:38:00.989Z,38.43
2023-05-15T02:40:28.961Z,37.60
2023-05-15T02:42:57.026Z,35.63
2023-05-15T02:45:24.398Z,35.27
2023-05-15T02:47:51.717Z,39.80
2023-05-15T02:50:18.578Z,39.00
2023-05-15T02:52:45.036Z,36.87
2023-05-15T02:55:11.484Z,39.73
2023-05-15T02:57:38.004Z,37.03
2023-05-15T03:00:07.507Z,39.20
2023-05-15T03:02:34.015Z,40.03
2023-05-15T03:05:00.503Z,39.67
2023-05-15T03:07:27.271Z,37.20
2023-05-15T03:09:53.692Z,36.50
2023-05-15T03:12:20.228Z,37.10
2023-05-15T03:14:46.701Z,40.87
2023-05-15T03:17:13.282Z,36.43
2023-05-15T03:19:39.819Z,39.70
2023-05-15T03:22:06.324Z,37.83
2023-05-15T03:24:32.817Z,39.40
2023-05-15T03:26:59.249Z,40.33
2023-05-15T03:29:25.828Z,41.13
2023-05-15T03:31:52.384Z,36.47
2023-05-15T03:34:18.923Z,35.67
2023-05-15T03:36:45.601Z,36.90
2023-05-15T03:39:12.099Z,36.30
2023-05-15T03:41:38.547Z,36.63
2023-05-15T03:44:05.168Z,35.47
2023-05-15T03:46:31.674Z,39.73
2023-05-15T03:48:58.405Z,39.63
2023-05-15T03:51:25.068Z,36.83
2023-05-15T03:53:51.559Z,35.83
2023-05-15T03:56:18.063Z,37.40
2023-05-15T03:58:44.612Z,37.73
2023-05-15T04:01:11.090Z,36.37
2023-05-15T04:03:37.586Z,37.30
2023-05-15T04:06:04.363Z,37.83
2023-05-15T04:08:30.865Z,37.63
2023-05-15T04:10:57.361Z,38.30
2023-05-15T04:13:23.840Z,35.33
2023-05-15T04:15:50.394Z,38.43
2023-05-15T04:18:16.911Z,35.37
2023-05-15T04:20:43.355Z,38.30
2023-05-15T04:23:09.831Z,36.20
2023-05-15T04:25:36.612Z,34.50
2023-05-15T04:28:03.183Z,35.27
2023-05-15T04:30:29.716Z,34.23
2023-05-15T04:32:56.580Z,35.37
2023-05-15T04:35:23.319Z,35.53
2023-05-15T04:37:49.958Z,35.53
2023-05-15T04:40:16.940Z,35.33
2023-05-15T04:42:43.630Z,35.00
2023-05-15T04:45:10.919Z,36.43
2023-05-15T04:47:37.845Z,35.37
2023-05-15T04:50:04.629Z,35.17
2023-05-15T04:52:32.211Z,35.83
2023-05-15T04:54:58.784Z,39.03
2023-05-15T04:57:25.819Z,36.63
2023-05-15T04:59:52.517Z,36.50
2023-05-15T05:02:22.743Z,36.73
2023-05-15T05:04:49.829Z,39.10
2023-05-15T05:07:16.462Z,41.57
2023-05-15T05:09:43.102Z,37.23
2023-05-15T05:12:09.970Z,37.37
2023-05-15T05:14:36.820Z,37.83
2023-05-15T05:17:03.652Z,36.23
2023-05-15T05:19:30.183Z,38.83
2023-05-15T05:21:58.442Z,39.27
2023-05-15T05:24:25.255Z,39.27
2023-05-15T05:26:51.719Z,39.87
2023-05-15T05:29:18.197Z,42.10
2023-05-15T05:31:46.888Z,41.77
2023-05-15T05:34:13.603Z,41.10
2023-05-15T05:36:40.069Z,40.70
2023-05-15T05:39:06.901Z,38.37
2023-05-15T05:41:33.428Z,38.70
2023-05-15T05:43:59.908Z,39.40
2023-05-15T05:46:27.326Z,40.20
2023-05-15T05:48:53.880Z,39.83
2023-05-15T05:51:20.720Z,38.30
2023-05-15T05:53:47.220Z,35.00
2023-05-15T05:56:13.845Z,37.10
2023-05-15T05:58:40.325Z,35.50
2023-05-15T06:01:07.079Z,34.23
2023-05-15T06:03:34.317Z,33.67
2023-05-15T06:06:00.975Z,34.40
2023-05-15T06:08:29.099Z,32.17
2023-05-15T06:10:55.665Z,30.63
2023-05-15T06:13:22.222Z,30.20
2023-05-15T06:15:48.693Z,31.50
2023-05-15T06:18:15.227Z,26.60
2023-05-15T06:20:42.899Z,30.47
2023-05-15T06:23:09.815Z,29.73
2023-05-15T06:25:36.530Z,28.50
2023-05-15T06:28:03.231Z,31.33
2023-05-15T06:30:29.839Z,31.10
2023-05-15T06:32:56.297Z,29.47
2023-05-15T06:35:25.860Z,29.47
2023-05-15T06:37:53.513Z,25.60
2023-05-15T06:40:21.155Z,24.40
2023-05-15T06:42:47.757Z,27.93
2023-05-15T06:45:14.317Z,32.20
2023-05-15T06:47:41.263Z,27.30
2023-05-15T06:50:08.463Z,27.67
2023-05-15T06:52:36.009Z,28.27
2023-05-15T06:55:02.707Z,29.13
2023-05-15T06:57:29.149Z,32.37
2023-05-15T06:59:57.095Z,28.90
2023-05-15T07:02:23.541Z,34.67
2023-05-15T07:04:50.166Z,34.03
2023-05-15T07:07:16.737Z,35.00
2023-05-15T07:09:45.719Z,30.40
2023-05-15T07:12:12.167Z,28.67
2023-05-15T07:14:38.648Z,28.93
2023-05-15T07:17:05.161Z,29.77
2023-05-15T07:19:31.668Z,29.97
2023-05-15T07:21:58.164Z,37.50
2023-05-15T07:24:24.670Z,34.83
2023-05-15T07:29:23.862Z,38.90
2023-05-15T07:31:50.454Z,46.07
2023-05-15T07:34:17.007Z,35.93
2023-05-15T07:36:43.464Z,38.60
2023-05-15T07:39:10.621Z,54.73
2023-05-15T07:41:37.295Z,59.30
2023-05-15T07:44:03.884Z,66.27
2023-05-15T07:46:30.423Z,70.50
2023-05-15T07:48:57.004Z,93.20
2023-05-15T07:51:23.484Z,87.37
2023-05-15T07:53:50.106Z,76.57
2023-05-15T07:56:16.605Z,85.17
2023-05-15T07:58:43.120Z,94.07
2023-05-15T08:01:09.668Z,89.40
2023-05-15T08:03:36.367Z,88.67
2023-05-15T08:06:02.996Z,80.57
2023-05-15T08:08:29.473Z,75.17
2023-05-15T08:10:56.036Z,96.87
2023-05-15T08:13:22.504Z,101.90
2023-05-15T08:15:49.087Z,105.20
2023-05-15T08:18:15.700Z,96.20
2023-05-15T08:20:42.160Z,85.13
2023-05-15T08:23:08.791Z,108.10
2023-05-15T08:25:35.310Z,91.00
2023-05-15T08:28:02.826Z,88.53
2023-05-15T08:30:29.349Z,78.20
2023-05-15T08:32:55.858Z,99.10
2023-05-15T08:35:22.432Z,104.13
2023-05-15T08:37:48.915Z,119.00
2023-05-15T08:40:15.622Z,122.97
2023-05-15T08:42:50.595Z,92.70
2023-05-15T08:45:17.201Z,107.17
2023-05-15T08:47:44.210Z,103.63
2023-05-15T08:50:15.938Z,96.53
2023-05-15T08:52:45.387Z,85.33
2023-05-15T08:55:11.994Z,100.50
2023-05-15T08:57:39.024Z,140.37
2023-05-15T09:00:09.575Z,96.43
2023-05-15T09:02:37.513Z,120.57
2023-05-15T09:05:05.444Z,146.17
2023-05-15T09:07:32.237Z,88.80
2023-05-15T09:09:59.727Z,100.63
2023-05-15T09:12:26.757Z,104.73
2023-05-15T09:15:08.784Z,91.47
2023-05-15T09:17:35.372Z,85.63
2023-05-15T09:20:06.016Z,100.73
2023-05-15T09:22:36.479Z,101.60
2023-05-15T09:25:04.199Z,137.27
2023-05-15T09:27:47.204Z,142.50
2023-05-15T09:30:24.255Z,147.17
2023-05-15T09:32:51.619Z,79.33
2023-05-15T09:35:37.660Z,97.80
2023-05-15T09:38:09.076Z,139.27
2023-05-15T09:40:35.577Z,93.30
2023-05-15T09:43:02.100Z,89.77
2023-05-15T09:45:30.353Z,115.03
2023-05-15T09:48:00.126Z,109.67
2023-05-15T09:50:37.832Z,123.63
2023-05-15T09:53:05.231Z,104.80
2023-05-15T09:55:36.288Z,129.03
2023-05-15T09:58:13.831Z,157.80
2023-05-15T10:00:48.306Z,125.53
2023-05-15T10:03:17.912Z,178.13
2023-05-15T10:05:44.688Z,112.07
2023-05-15T10:08:12.338Z,155.07
2023-05-15T10:10:38.953Z,149.03
2023-05-15T10:13:07.298Z,146.33
2023-05-15T10:15:34.222Z,164.37
2023-05-15T10:18:01.465Z,133.10
2023-05-15T10:20:28.146Z,123.20
2023-05-15T10:22:56.282Z,121.03
2023-05-15T10:25:28.106Z,119.83
2023-05-15T10:27:55.320Z,149.33
2023-05-15T10:30:22.291Z,118.77
2023-05-15T10:32:49.748Z,129.60
2023-05-15T10:35:17.241Z,124.23
2023-05-15T10:37:45.896Z,118.80
2023-05-15T10:40:13.356Z,124.37
2023-05-15T10:42:42.508Z,136.47
2023-05-15T10:45:09.766Z,138.67
2023-05-15T10:47:37.697Z,123.93
2023-05-15T10:50:05.454Z,132.73
2023-05-15T10:52:33.511Z,125.80
2023-05-15T10:55:00.653Z,139.90
2023-05-15T10:57:30.278Z,164.93
2023-05-15T10:59:57.000Z,120.73
2023-05-15T11:02:29.460Z,139.13
2023-05-15T11:05:00.943Z,135.37
2023-05-15T11:07:28.314Z,135.63
2023-05-15T11:09:56.086Z,149.37
2023-05-15T11:12:23.446Z,156.73
2023-05-15T11:14:55.905Z,174.87
2023-05-15T11:17:25.822Z,143.07
2023-05-15T11:19:52.294Z,179.67
2023-05-15T11:22:26.853Z,137.00
2023-05-15T11:25:00.841Z,146.03
2023-05-15T11:27:29.560Z,139.63
2023-05-15T11:30:08.137Z,131.10
2023-05-15T11:32:47.047Z,137.07
2023-05-15T11:35:14.636Z,149.63
2023-05-15T11:37:47.293Z,150.77
2023-05-15T11:40:39.667Z,156.67
2023-05-15T11:43:08.813Z,136.10
2023-05-15T11:45:37.930Z,180.47
2023-05-15T11:48:06.825Z,164.63
2023-05-15T11:50:34.717Z,154.23
2023-05-15T11:53:08.583Z,157.03
2023-05-15T11:55:37.480Z,157.70
2023-05-15T11:58:08.598Z,171.97
2023-05-15T12:00:35.111Z,191.83
2023-05-15T12:03:03.843Z,193.73
2023-05-15T12:05:31.132Z,179.57
2023-05-15T12:07:58.087Z,123.53
2023-05-15T12:10:24.864Z,154.23
2023-05-15T12:12:51.681Z,130.67
2023-05-15T12:15:18.198Z,127.33
2023-05-15T12:17:45.400Z,142.20
2023-05-15T12:20:17.825Z,117.73
2023-05-15T12:22:44.878Z,206.87
2023-05-15T12:25:12.487Z,115.83
2023-05-15T12:27:39.857Z,141.33
2023-05-15T12:30:07.541Z,102.60
2023-05-15T12:32:36.171Z,103.73
2023-05-15T12:35:03.776Z,139.27
2023-05-15T12:37:35.583Z,134.17
2023-05-15T12:40:10.408Z,123.13
2023-05-15T12:42:44.224Z,109.30
2023-05-15T12:45:14.336Z,99.97
2023-05-15T12:47:40.911Z,141.83
2023-05-15T12:50:22.573Z,95.07
2023-05-15T12:52:56.784Z,95.40
2023-05-15T12:55:27.152Z,107.70
2023-05-15T12:57:57.578Z,139.17
2023-05-15T13:00:24.567Z,102.33
2023-05-15T13:02:54.151Z,96.63
2023-05-15T13:05:23.148Z,102.67
2023-05-15T13:07:49.917Z,108.17
2023-05-15T13:10:16.452Z,91.27
2023-05-15T13:12:45.315Z,98.40
2023-05-15T13:15:35.535Z,91.37
2023-05-15T13:18:07.707Z,86.00
2023-05-15T13:20:38.681Z,122.27
2023-05-15T13:23:05.594Z,102.17
2023-05-15T13:25:32.425Z,105.40
2023-05-15T13:28:00.801Z,90.30
2023-05-15T13:30:28.387Z,112.20
2023-05-15T13:32:55.973Z,92.90
2023-05-15T13:35:22.953Z,100.07
2023-05-15T13:37:49.907Z,133.43
2023-05-15T13:40:16.653Z,120.60
2023-05-15T13:42:44.262Z,102.03
2023-05-15T13:45:12.451Z,98.83
2023-05-15T13:47:39.567Z,112.17
2023-05-15T13:50:11.084Z,110.73
2023-05-15T13:52:38.179Z,110.00
2023-05-15T13:55:05.285Z,108.37
2023-05-15T13:57:32.336Z,128.07
2023-05-15T13:59:59.202Z,128.40
2023-05-15T14:02:29.297Z,142.47
2023-05-15T14:04:55.793Z,163.80
2023-05-15T14:07:23.200Z,171.97
2023-05-15T14:09:53.114Z,144.30
2023-05-15T14:12:19.807Z,137.33
2023-05-15T14:14:47.007Z,147.07
2023-05-15T14:17:14.065Z,195.63
2023-05-15T14:19:41.027Z,156.40
2023-05-15T14:22:07.516Z,137.37
2023-05-15T14:24:33.975Z,141.77
2023-05-15T14:27:00.687Z,117.10
2023-05-15T14:29:27.233Z,132.70
2023-05-15T14:31:53.880Z,126.13
2023-05-15T14:34:22.507Z,153.67
2023-05-15T14:36:49.729Z,141.63
2023-05-15T14:39:17.014Z,125.50
2023-05-15T14:41:44.559Z,111.37
2023-05-15T14:44:11.095Z,148.80
2023-05-15T14:46:38.183Z,96.13
2023-05-15T14:49:05.176Z,86.20
2023-05-15T14:51:32.267Z,92.63
2023-05-15T14:53:58.946Z,85.53
2023-05-15T14:56:25.928Z,105.07
2023-05-15T14:58:53.716Z,92.37
2023-05-15T15:01:20.772Z,74.10
2023-05-15T15:03:47.500Z,60.33
2023-05-15T15:06:14.099Z,44.40
2023-05-15T15:08:40.747Z,57.57
2023-05-15T15:11:07.865Z,49.33
2023-05-15T15:13:34.478Z,42.87
2023-05-15T15:16:00.976Z,39.77
2023-05-15T15:18:27.508Z,45.87
2023-05-15T15:20:53.969Z,46.20
2023-05-15T15:23:20.503Z,33.83
2023-05-15T15:25:47.042Z,36.57
2023-05-15T15:28:13.534Z,34.37
2023-05-15T15:30:40.114Z,33.47
2023-05-15T15:33:06.700Z,30.60
2023-05-15T15:35:33.274Z,33.33
2023-05-15T15:37:59.776Z,32.53
2023-05-15T15:40:26.546Z,30.83
2023-05-15T15:42:54.269Z,31.40
2023-05-15T15:45:20.898Z,31.77
2023-05-15T15:47:47.934Z,35.20
2023-05-15T15:50:14.515Z,35.47
2023-05-15T15:52:41.521Z,37.37
2023-05-15T15:55:08.763Z,32.90
2023-05-15T15:57:36.531Z,39.30
2023-05-15T16:00:03.280Z,33.20
2023-05-15T16:02:29.887Z,36.10
2023-05-15T16:04:56.403Z,35.03
2023-05-15T16:07:22.958Z,31.37
2023-05-15T16:09:53.749Z,35.73
2023-05-15T16:12:30.419Z,36.33
2023-05-15T16:15:00.158Z,34.80
2023-05-15T16:17:30.777Z,38.30
2023-05-15T16:19:57.231Z,36.07
2023-05-15T16:22:23.672Z,31.67
2023-05-15T16:24:50.559Z,32.93
2023-05-15T16:27:16.998Z,38.47
2023-05-15T16:29:43.467Z,44.43
2023-05-15T16:32:10.022Z,37.07
2023-05-15T16:34:36.638Z,37.57
2023-05-15T16:37:03.540Z,41.63
2023-05-15T16:39:32.296Z,35.47
2023-05-15T16:41:58.879Z,38.00
2023-05-15T16:44:25.340Z,40.63
2023-05-15T16:46:51.861Z,28.37
2023-05-15T16:49:18.470Z,35.77
2023-05-15T16:51:45.161Z,32.77
2023-05-15T16:54:11.659Z,27.87
2023-05-15T16:56:38.259Z,29.77
2023-05-15T16:59:05.011Z,30.63
2023-05-15T17:01:31.530Z,41.87
2023-05-15T17:03:58.098Z,24.63
2023-05-15T17:06:24.720Z,26.77
2023-05-15T17:08:51.176Z,27.87
2023-05-15T17:11:17.780Z,25.20
2023-05-15T17:13:44.942Z,28.87
2023-05-15T17:16:11.544Z,28.70
2023-05-15T17:18:40.826Z,29.33
2023-05-15T17:21:19.697Z,24.63
2023-05-15T17:23:53.604Z,25.73
2023-05-15T17:26:35.612Z,24.40
2023-05-15T17:29:04.046Z,40.20
2023-05-15T17:31:31.281Z,31.03
2023-05-15T17:34:01.806Z,23.17
2023-05-15T17:36:28.416Z,25.03
2023-05-15T17:38:57.803Z,22.47
2023-05-15T17:41:33.053Z,24.90
2023-05-15T17:44:01.103Z,21.23
2023-05-15T17:46:32.092Z,23.23
2023-05-15T17:49:11.295Z,23.30
2023-05-15T17:51:44.245Z,17.90
2023-05-15T17:54:15.789Z,22.30
2023-05-15T17:56:43.229Z,21.37
2023-05-15T17:59:12.074Z,24.67
2023-05-15T18:01:44.467Z,21.10
2023-05-15T18:04:11.590Z,21.23
2023-05-15T18:06:40.246Z,21.60
2023-05-15T18:09:08.113Z,20.63
2023-05-15T18:11:36.602Z,18.53
2023-05-15T18:14:07.724Z,19.57
2023-05-15T18:16:34.469Z,21.50
2023-05-15T18:19:03.085Z,17.13
2023-05-15T18:21:29.664Z,20.00
2023-05-15T18:23:56.128Z,19.13
2023-05-15T18:26:22.621Z,21.50
2023-05-15T18:28:50.140Z,20.30
2023-05-15T18:31:16.714Z,20.63
2023-05-15T18:33:45.271Z,20.03
2023-05-15T18:36:11.886Z,20.33
2023-05-15T18:38:38.420Z,18.10
2023-05-15T18:41:05.115Z,20.53
2023-05-15T18:43:31.595Z,18.47
2023-05-15T18:45:58.104Z,20.73
2023-05-15T18:48:24.693Z,21.30
2023-05-15T18:50:55.799Z,22.73
2023-05-15T18:53:22.316Z,20.67
2023-05-15T18:55:49.127Z,22.43
2023-05-15T18:58:15.742Z,37.40
2023-05-15T19:00:42.275Z,24.33
2023-05-15T19:03:08.982Z,23.83
2023-05-15T19:05:35.731Z,24.60
2023-05-15T19:08:02.294Z,23.80
2023-05-15T19:10:29.751Z,21.27
2023-05-15T19:12:57.081Z,23.57
2023-05-15T19:15:23.963Z,28.73
2023-05-15T19:17:50.751Z,25.67
2023-05-15T19:20:17.422Z,30.10
2023-05-15T19:22:43.983Z,26.13
2023-05-15T19:25:11.023Z,23.90
2023-05-15T19:27:37.840Z,25.27
2023-05-15T19:30:07.065Z,40.23
2023-05-15T19:32:34.248Z,33.10
2023-05-15T19:35:00.871Z,24.37
2023-05-15T19:37:27.335Z,25.20
2023-05-15T19:39:53.855Z,24.23
2023-05-15T19:42:20.352Z,28.27
2023-05-15T19:44:46.836Z,25.63
2023-05-15T19:47:13.281Z,29.47
2023-05-15T19:49:39.837Z,27.43
2023-05-15T19:52:06.511Z,32.30
2023-05-15T19:54:32.988Z,28.17
2023-05-15T19:57:02.672Z,34.77
2023-05-15T19:59:29.826Z,30.13
2023-05-15T20:01:56.413Z,31.73
2023-05-15T20:04:23.015Z,27.70
2023-05-15T20:06:49.513Z,25.50
2023-05-15T20:09:16.030Z,49.07
2023-05-15T20:11:42.871Z,28.33
2023-05-15T20:14:09.527Z,25.33
2023-05-15T20:16:41.298Z,37.17
2023-05-15T20:19:07.980Z,29.30
2023-05-15T20:21:34.455Z,57.20
2023-05-15T20:24:01.140Z,23.87
2023-05-15T20:26:27.929Z,25.60
2023-05-15T20:28:54.425Z,35.83
2023-05-15T20:31:20.980Z,31.53
2023-05-15T20:33:47.526Z,25.90
2023-05-15T20:36:15.408Z,31.23
2023-05-15T20:38:44.884Z,41.67
2023-05-15T20:41:11.374Z,27.30
2023-05-15T20:43:39.146Z,28.27
2023-05-15T20:46:08.749Z,47.80
2023-05-15T20:48:36.451Z,26.10
2023-05-15T20:51:03.264Z,26.90
2023-05-15T20:53:29.882Z,26.80
2023-05-15T20:55:57.426Z,40.13
2023-05-15T20:58:23.908Z,31.23
2023-05-15T21:00:50.604Z,26.60
2023-05-15T21:03:17.320Z,24.77
2023-05-15T21:05:46.730Z,23.97
2023-05-15T21:08:13.770Z,28.07
2023-05-15T21:10:40.265Z,26.77
2023-05-15T21:13:07.844Z,45.10
2023-05-15T21:15:34.633Z,34.83
2023-05-15T21:18:01.858Z,40.20
2023-05-15T21:20:28.588Z,28.50
2023-05-15T21:22:55.252Z,38.27
2023-05-15T21:25:21.765Z,26.37
2023-05-15T21:27:48.183Z,29.37
2023-05-15T21:30:14.937Z,31.57
2023-05-15T21:32:41.534Z,38.10
2023-05-15T21:35:08.479Z,27.47
2023-05-15T21:37:34.914Z,38.83
2023-05-15T21:40:01.953Z,40.87
2023-05-15T21:42:30.534Z,28.93
2023-05-15T21:44:57.158Z,57.57
2023-05-15T21:47:23.649Z,34.17
2023-05-15T21:49:50.196Z,48.03
2023-05-15T21:52:16.635Z,51.63
2023-05-15T21:54:44.474Z,42.50
2023-05-15T21:57:11.041Z,24.70
2023-05-15T21:59:37.555Z,39.50
2023-05-15T22:02:04.320Z,27.27
2023-05-15T22:04:30.941Z,34.53
2023-05-15T22:06:57.529Z,33.93
2023-05-15T22:09:24.015Z,29.23
2023-05-15T22:11:50.792Z,62.40
2023-05-15T22:14:17.368Z,40.00
2023-05-15T22:16:44.030Z,28.90
2023-05-15T22:19:21.475Z,30.10
2023-05-15T22:21:57.094Z,21.10
2023-05-15T22:24:23.793Z,21.70
2023-05-15T22:26:50.301Z,22.77
2023-05-15T22:29:16.769Z,21.43
2023-05-15T22:31:43.284Z,22.63
2023-05-15T22:34:09.786Z,19.70
2023-05-15T22:36:36.728Z,20.43
2023-05-15T22:39:04.259Z,23.10
2023-05-15T22:41:32.825Z,21.07
2023-05-15T22:43:59.350Z,21.47
2023-05-15T22:46:25.912Z,17.10
2023-05-15T22:48:53.064Z,22.53
2023-05-15T22:51:20.447Z,92.47
2023-05-15T22:53:46.908Z,32.23
2023-05-15T22:56:13.394Z,18.47
2023-05-15T22:58:39.860Z,23.07
2023-05-15T23:01:06.386Z,17.60
2023-05-15T23:03:33.117Z,17.47
2023-05-15T23:05:59.572Z,27.57
2023-05-15T23:08:26.158Z,17.90
2023-05-15T23:10:53.331Z,44.70
2023-05-15T23:13:19.807Z,16.13
2023-05-15T23:15:46.560Z,16.03
2023-05-15T23:18:14.316Z,18.97
2023-05-15T23:20:40.988Z,13.63
2023-05-15T23:23:07.562Z,21.13
2023-05-15T23:25:34.095Z,13.23
2023-05-15T23:28:00.587Z,15.60
2023-05-15T23:30:27.326Z,17.57
2023-05-15T23:32:55.534Z,13.57
2023-05-15T23:35:22.312Z,25.97
2023-05-15T23:37:48.748Z,13.10
2023-05-15T23:40:16.361Z,12.77
2023-05-15T23:42:42.859Z,13.17
2023-05-15T23:45:10.197Z,12.13
2023-05-15T23:47:36.722Z,17.70
2023-05-15T23:50:03.691Z,11.70
2023-05-15T23:52:30.147Z,26.60
2023-05-15T23:54:56.630Z,16.53
2023-05-15T23:57:23.070Z,19.57
2023-05-15T23:59:49.591Z,12.20
